Time;durP1;ratioP1;P1;durP2;ratioP2;P2;SDS_P1;SDS_P2;PMS_P1;PMS_P2;Temp;Humidity;BMP_temperature;BMP_pressure;BME280_temperature;BME280_humidity;BME280_pressure;Samples;Min_cycle;Max_cycle;Signal;HPM_P1;HPM_P2
2023/01/07 00:00:32;;;;;;;41.85;23.42;;;10.10;99.90;;;;;;4700930;30;20077;-91
2023/01/07 00:03:31;;;;;;;36.03;22.40;;;8.90;99.90;;;;;;4714731;30;20151;-90
2023/01/07 00:06:32;;;;;;;38.85;23.42;;;9.30;99.90;;;;;;4749123;24;20043;-91
2023/01/07 00:09:11;;;;;;;38.75;24.08;;;9.80;99.90;;;;;;4789561;29;20066;-90
2023/01/07 00:11:58;;;;;;;37.47;22.75;;;9.20;99.90;;;;;;4754369;29;20085;-90
2023/01/07 00:19:09;;;;;;;38.92;23.90;;;9.50;99.90;;;;;;4684533;30;20058;-89
2023/01/07 00:21:48;;;;;;;39.05;24.33;;;9.70;99.90;;;;;;4664070;30;20164;-90
2023/01/07 00:24:44;;;;;;;38.15;22.98;;;9.30;99.90;;;;;;4664043;30;20061;-93
2023/01/07 00:27:55;;;;;;;;;;;;;;;;;;;;;
2023/01/07 00:30:38;;;;;;;38.75;22.52;;;9.60;99.90;;;;;;4669711;30;20084;-90
2023/01/07 00:33:16;;;;;;;35.80;22.58;;;9.80;99.90;;;;;;4648916;30;20144;-89
2023/01/07 00:35:45;;;;;;;36.78;22.42;;;9.70;99.90;;;;;;4650122;30;20082;-90
2023/01/07 00:38:13;;;;;;;39.65;23.05;;;10.40;99.90;;;;;;4649515;30;20076;-87
2023/01/07 00:41:08;;;;;;;36.55;22.25;;;9.50;99.90;;;;;;4666785;30;20072;-90
2023/01/07 00:43:34;;;;;;;34.15;21.75;;;9.30;99.90;;;;;;4643798;30;20078;-90
2023/01/07 00:45:59;;;;;;;34.88;21.40;;;9.50;99.90;;;;;;4647915;30;20063;-88
2023/01/07 00:48:25;;;;;;;31.58;19.73;;;9.60;99.90;;;;;;4644519;30;20067;-89
2023/01/07 00:51:19;;;;;;;32.90;20.42;;;10.20;99.90;;;;;;4644046;30;20066;-90
2023/01/07 00:54:16;;;;;;;32.38;19.98;;;9.60;99.90;;;;;;4714396;24;20558;-93
2023/01/07 00:56:53;;;;;;;27.52;18.73;;;9.60;99.90;;;;;;4769562;30;20065;-92
2023/01/07 00:59:38;;;;;;;;;;;;;;;;;;;;;
2023/01/07 01:03:10;;;;;;;30.42;18.70;;;9.40;99.90;;;;;;4784290;29;20062;-94
2023/01/07 01:06:29;;;;;;;30.25;18.60;;;9.50;99.90;;;;;;4713876;30;20152;-93
2023/01/07 01:43:32;;;;;;;24.38;16.92;;;10.10;99.90;;;;;;4802996;29;20069;-90
2023/01/07 01:50:04;;;;;;;24.45;18.08;;;10.10;99.90;;;;;;4967657;24;20545;-94
2023/01/07 02:06:49;;;;;;;23.38;16.70;;;10.40;99.90;;;;;;4825557;29;20077;-93
2023/01/07 02:10:30;;;;;;;;;;;;;;;;;;;;;
2023/01/07 02:17:49;;;;;;;26.42;19.55;;;10.20;99.90;;;;;;4668453;30;20089;-91
2023/01/07 02:44:24;;;;;;;25.83;19.42;;;10.30;99.90;;;;;;3209479;27;20053;-89
2023/01/07 02:47:34;;;;;;;28.02;20.50;;;10.10;99.90;;;;;;4811012;29;20054;-92
2023/01/07 02:57:19;;;;;;;25.83;20.50;;;10.30;99.90;;;;;;4717171;30;20055;-90
2023/01/07 03:22:22;;;;;;;25.73;19.90;;;10.30;99.90;;;;;;5003229;22;30202701;-93
2023/01/07 03:25:53;;;;;;;;;;;;;;;;;;;;;
2023/01/07 03:36:51;;;;;;;;;;;;;;;;;;;;;
2023/01/07 03:43:31;;;;;;;23.83;19.20;;;10.30;99.90;;;;;;5956367;24;20497;-93
2023/01/07 03:46:25;;;;;;;;;;;9.60;99.90;;;;;;5958095;24;20292;-93
2023/01/07 03:54:47;;;;;;;22.63;18.58;;;10.30;99.90;;;;;;6284030;22;20032;-92
2023/01/07 04:04:37;;;;;;;20.65;16.70;;;10.60;99.90;;;;;;6116474;22;20110;-91
2023/01/07 04:07:07;;;;;;;21.15;16.60;;;10.30;99.90;;;;;;6337470;22;20015;-93
2023/01/07 04:17:37;;;;;;;21.83;17.10;;;10.60;99.90;;;;;;6281741;22;20085;-89
2023/01/07 04:27:37;;;;;;;;;;;;;;;;;;;;;
2023/01/07 04:30:59;;;;;;;24.52;18.27;;;10.20;99.90;;;;;;6096357;23;20101;-91
2023/01/07 05:11:27;;;;;;;23.00;16.17;;;10.10;99.90;;;;;;6220673;22;20322;-88
2023/01/07 05:40:21;;;;;;;21.00;13.70;;;10.10;99.90;;;;;;6022925;23;20037;-88
2023/01/07 06:51:40;;;;;;;15.93;10.15;;;9.80;99.90;;;;;;6247552;22;20043;-91
2023/01/07 06:55:15;;;;;;;12.80;9.32;;;9.80;99.90;;;;;;6192168;23;20021;-91
2023/01/07 07:10:29;;;;;;;13.93;8.88;;;9.90;99.90;;;;;;6277843;22;20034;-90
2023/01/07 07:16:22;;;;;;;14.95;9.43;;;9.90;99.90;;;;;;6273112;22;20345;-89
2023/01/07 07:19:29;;;;;;;14.70;10.35;;;9.80;99.90;;;;;;6131224;23;20104;-93
2023/01/07 07:22:44;;;;;;;14.00;9.18;;;9.80;99.90;;;;;;6131013;23;20145;-91
2023/01/07 07:33:26;;;;;;;12.57;8.23;;;9.40;99.90;;;;;;5950067;24;20020;-90
2023/01/07 08:05:51;;;;;;;11.07;6.45;;;9.80;99.90;;;;;;6203658;22;3612814;-89
2023/01/07 08:08:42;;;;;;;12.00;6.82;;;9.70;99.90;;;;;;6301201;22;20025;-89
2023/01/07 08:12:10;;;;;;;9.55;6.28;;;9.70;99.90;;;;;;6348626;22;20023;-92
2023/01/07 08:15:08;;;;;;;11.85;6.22;;;9.70;99.90;;;;;;6193007;23;20047;-91
2023/01/07 08:18:07;;;;;;;10.48;6.03;;;9.70;99.90;;;;;;6115157;23;20022;-88
2023/01/07 08:21:11;;;;;;;8.15;5.80;;;9.70;99.90;;;;;;5942066;24;20084;-93
2023/01/07 08:31:42;;;;;;;9.93;5.43;;;9.60;99.90;;;;;;5851450;24;20021;-90
2023/01/07 10:30:23;;;;;;;8.32;2.90;;;10.20;99.90;;;;;;6297952;22;20033;-91
2023/01/07 10:50:40;;;;;;;5.57;2.60;;;10.20;99.90;;;;;;6255590;22;20928;-92
2023/01/07 10:54:24;;;;;;;7.32;2.80;;;10.20;99.90;;;;;;6311281;22;20040;-91
2023/01/07 11:14:53;;;;;;;5.55;2.10;;;10.50;99.90;;;;;;6270344;22;20050;-91
2023/01/07 11:40:11;;;;;;;5.10;1.60;;;10.90;99.90;;;;;;6327497;22;20022;-85
2023/01/07 11:43:45;;;;;;;2.20;1.48;;;10.90;99.90;;;;;;6315032;22;20022;-89
2023/01/07 11:52:04;;;;;;;3.35;1.50;;;10.90;99.90;;;;;;6361094;22;20033;-91
2023/01/07 11:55:30;;;;;;;5.38;1.48;;;10.80;99.90;;;;;;6189044;23;20024;-89
2023/01/07 11:58:26;;;;;;;2.58;1.40;;;10.80;99.90;;;;;;6216705;23;20047;-90
2023/01/07 12:04:03;;;;;;;1.70;1.10;;;10.80;99.90;;;;;;6373136;22;20023;-90
2023/01/07 12:16:49;;;;;;;3.08;1.20;;;10.70;99.90;;;;;;6269592;22;20016;-90
2023/01/07 12:20:02;;;;;;;4.03;1.33;;;11.00;99.90;;;;;;6226683;22;20024;-85
2023/01/07 12:22:57;;;;;;;5.68;1.38;;;10.80;99.90;;;;;;6265738;22;20015;-86
2023/01/07 12:25:51;;;;;;;4.75;1.55;;;11.30;99.90;;;;;;6270817;22;20019;-89
2023/01/07 12:28:54;;;;;;;4.03;1.60;;;11.00;99.90;;;;;;6244654;22;20024;-88
2023/01/07 12:31:27;;;;;;;4.88;1.60;;;11.10;99.90;;;;;;6281973;22;20317;-89
2023/01/07 12:37:22;;;;;;;2.45;1.38;;;11.30;99.90;;;;;;6362592;22;20022;-90
2023/01/07 12:40:07;;;;;;;2.60;1.60;;;11.30;99.90;;;;;;6312829;22;20014;-85
2023/01/07 12:42:37;;;;;;;3.85;1.63;;;11.40;99.90;;;;;;6339332;22;20014;-86
2023/01/07 12:45:37;;;;;;;3.53;1.27;;;11.40;99.90;;;;;;6366856;22;20022;-86
2023/01/07 12:48:46;;;;;;;3.60;1.40;;;11.50;99.90;;;;;;6310122;22;20044;-93
2023/01/07 12:52:03;;;;;;;2.63;1.40;;;11.50;99.90;;;;;;6339478;22;20075;-91
2023/01/07 12:55:02;;;;;;;4.32;1.50;;;11.50;99.90;;;;;;6288543;22;20023;-90
2023/01/07 12:57:36;;;;;;;2.00;1.20;;;11.70;99.90;;;;;;6368147;22;20496;-84
2023/01/07 13:00:28;;;;;;;2.43;1.20;;;11.70;99.90;;;;;;6338397;22;20032;-91
2023/01/07 13:03:07;;;;;;;2.15;1.23;;;11.70;99.90;;;;;;6313875;22;20054;-89
2023/01/07 13:05:42;;;;;;;6.07;1.33;;;11.70;99.90;;;;;;6315005;22;20086;-88
2023/01/07 13:08:08;;;;;;;2.20;1.20;;;11.70;99.90;;;;;;6369027;22;20022;-88
2023/01/07 13:10:50;;;;;;;2.88;1.33;;;11.70;99.90;;;;;;6368160;22;20018;-90
2023/01/07 13:13:36;;;;;;;4.88;1.42;;;12.30;99.90;;;;;;6340883;22;20014;-88
2023/01/07 13:16:10;;;;;;;3.63;1.38;;;11.60;99.90;;;;;;6340733;22;20093;-88
2023/01/07 13:18:38;;;;;;;5.05;1.30;;;11.60;99.90;;;;;;6271113;22;20047;-84
2023/01/07 13:21:10;;;;;;;2.58;0.93;;;11.60;99.90;;;;;;6244504;22;20019;-86
2023/01/07 13:23:59;;;;;;;3.72;1.73;;;11.50;99.90;;;;;;6268880;22;20026;-84
2023/01/07 13:26:43;;;;;;;2.25;1.00;;;11.40;99.90;;;;;;6269120;22;20050;-84
2023/01/07 13:29:38;;;;;;;2.28;1.08;;;11.40;99.90;;;;;;6243372;22;20386;-86
2023/01/07 13:32:37;;;;;;;2.70;1.23;;;11.40;99.90;;;;;;6269486;22;20043;-86
2023/01/07 13:35:39;;;;;;;2.05;1.20;;;11.30;99.90;;;;;;6243483;22;20087;-84
2023/01/07 13:38:46;;;;;;;1.75;1.05;;;11.30;99.90;;;;;;6269250;22;20468;-86
2023/01/07 13:41:40;;;;;;;1.90;1.25;;;11.30;99.90;;;;;;6242870;22;20073;-87
2023/01/07 13:44:08;;;;;;;2.03;1.10;;;11.20;99.90;;;;;;6242983;22;20517;-85
2023/01/07 13:46:38;;;;;;;2.10;1.20;;;11.10;99.90;;;;;;6269444;22;20038;-87
2023/01/07 13:49:04;;;;;;;2.20;1.00;;;11.30;99.90;;;;;;6268679;22;20018;-86
2023/01/07 13:51:33;;;;;;;3.40;1.33;;;11.40;99.90;;;;;;6337948;22;20025;-86
2023/01/07 13:53:59;;;;;;;1.98;1.05;;;11.00;99.90;;;;;;6366135;22;20010;-84
2023/01/07 13:56:24;;;;;;;3.20;1.00;;;11.60;99.90;;;;;;6365629;22;20038;-86
2023/01/07 13:58:54;;;;;;;4.03;1.27;;;10.90;99.90;;;;;;6365923;22;20030;-85
2023/01/07 14:01:24;;;;;;;5.47;1.92;;;10.90;99.90;;;;;;6337901;22;20325;-87
2023/01/07 14:03:57;;;;;;;5.90;1.20;;;10.40;99.90;;;;;;6365995;22;20022;-88
2023/01/07 14:06:26;;;;;;;2.13;1.25;;;10.90;99.90;;;;;;6312619;22;20143;-87
2023/01/07 14:08:57;;;;;;;1.85;1.15;;;11.30;99.90;;;;;;6366501;22;20018;-85
2023/01/07 14:11:59;;;;;;;3.38;1.23;;;10.80;99.90;;;;;;6366186;22;20312;-86
2023/01/07 14:14:46;;;;;;;2.58;1.20;;;10.80;99.90;;;;;;6366759;22;20014;-84
2023/01/07 14:17:21;;;;;;;2.60;1.25;;;10.70;99.90;;;;;;6366245;22;20018;-87
2023/01/07 14:19:52;;;;;;;;;;;10.70;99.90;;;;;;6338882;22;20018;-85
2023/01/07 14:22:46;;;;;;;3.03;1.10;;;10.80;99.90;;;;;;6366459;22;19917;-86
2023/01/07 14:25:30;;;;;;;2.30;1.13;;;10.90;99.90;;;;;;6366134;22;20015;-85
2023/01/07 14:28:27;;;;;;;3.85;1.00;;;10.00;99.90;;;;;;6311560;22;20046;-84
2023/01/07 14:30:53;;;;;;;2.78;1.23;;;10.60;99.90;;;;;;6365969;22;20465;-85
2023/01/07 14:33:49;;;;;;;3.42;1.13;;;10.60;99.90;;;;;;6339304;22;20015;-86
2023/01/07 14:36:15;;;;;;;3.20;1.10;;;10.60;99.90;;;;;;6366722;22;20122;-86
2023/01/07 14:38:45;;;;;;;3.10;1.05;;;10.80;99.90;;;;;;6313995;22;20022;-87
2023/01/07 14:41:16;;;;;;;3.92;1.15;;;10.40;99.90;;;;;;6368255;22;20022;-85
2023/01/07 14:43:42;;;;;;;3.50;1.15;;;11.30;99.90;;;;;;6339391;22;20015;-85
2023/01/07 14:46:22;;;;;;;4.55;1.30;;;10.40;99.90;;;;;;6368219;22;20025;-85
2023/01/07 14:49:00;;;;;;;3.22;1.48;;;10.40;99.90;;;;;;6367199;22;20049;-85
2023/01/07 14:51:55;;;;;;;2.53;1.30;;;11.20;99.90;;;;;;6367989;22;20022;-84
2023/01/07 14:54:27;;;;;;;2.73;1.27;;;10.30;99.90;;;;;;6368143;22;20018;-87
2023/01/07 14:57:23;;;;;;;6.43;1.70;;;10.70;99.90;;;;;;6368191;22;20460;-86
2023/01/07 15:00:13;;;;;;;4.95;1.77;;;10.20;99.90;;;;;;6368001;22;20010;-85
2023/01/07 15:03:16;;;;;;;3.85;1.75;;;10.30;99.90;;;;;;6368206;22;20085;-85
2023/01/07 15:05:57;;;;;;;5.25;1.60;;;10.20;99.90;;;;;;6339505;22;20018;-85
2023/01/07 15:17:14;;;;;;;2.67;1.50;;;10.00;99.90;;;;;;6339552;22;20030;-84
2023/01/07 15:19:41;;;;;;;4.70;1.73;;;10.80;99.90;;;;;;6368133;22;20025;-88
2023/01/07 15:22:22;;;;;;;3.00;1.50;;;10.20;99.90;;;;;;6368101;22;20068;-84
2023/01/07 15:25:05;;;;;;;5.20;1.60;;;10.70;99.90;;;;;;6339877;22;20451;-86
2023/01/07 15:27:43;;;;;;;3.35;1.60;;;9.90;99.90;;;;;;6339429;22;20026;-88
2023/01/07 15:30:32;;;;;;;3.47;1.52;;;9.80;99.90;;;;;;6339049;22;20390;-86
2023/01/07 15:33:40;;;;;;;3.03;1.52;;;10.40;99.90;;;;;;6367287;22;20760;-84
2023/01/07 15:36:10;;;;;;;5.95;1.63;;;9.80;99.90;;;;;;6219639;22;20015;-85
2023/01/07 15:38:49;;;;;;;2.58;1.58;;;9.70;99.90;;;;;;6245026;22;20023;-85
2023/01/07 15:41:38;;;;;;;6.55;1.83;;;9.70;99.90;;;;;;6244562;22;20622;-84
2023/01/07 15:44:12;;;;;;;5.40;1.70;;;9.70;99.90;;;;;;6270407;22;20094;-85
2023/01/07 15:46:42;;;;;;;6.88;1.65;;;9.60;99.90;;;;;;6244642;22;20015;-85
2023/01/07 15:49:08;;;;;;;3.70;1.80;;;9.40;99.90;;;;;;6270443;22;20019;-85
2023/01/07 15:51:38;;;;;;;3.70;1.80;;;10.40;99.90;;;;;;6244825;22;20472;-85
2023/01/07 15:54:07;;;;;;;2.95;1.90;;;10.60;99.90;;;;;;6244770;22;20023;-84
2023/01/07 15:56:35;;;;;;;3.50;1.85;;;10.00;99.90;;;;;;6270942;22;20023;-87
2023/01/07 15:59:06;;;;;;;3.55;2.17;;;10.60;99.90;;;;;;6270703;22;20463;-85
2023/01/07 16:01:32;;;;;;;5.43;1.75;;;9.60;99.90;;;;;;6270046;22;20472;-85
2023/01/07 16:03:58;;;;;;;4.60;2.45;;;9.60;99.90;;;;;;6270548;22;20063;-88
2023/01/07 16:06:24;;;;;;;3.60;1.90;;;9.60;99.90;;;;;;6219397;22;20081;-86
2023/01/07 16:08:52;;;;;;;4.00;2.25;;;10.60;99.90;;;;;;6244269;22;20407;-87
2023/01/07 16:11:31;;;;;;;4.28;1.80;;;9.60;99.90;;;;;;6270393;22;20019;-85
2023/01/07 16:13:58;;;;;;;4.05;2.25;;;9.60;99.90;;;;;;6363168;22;20010;-85
2023/01/07 16:16:24;;;;;;;4.15;2.47;;;10.50;99.90;;;;;;6338394;22;20057;-84
2023/01/07 16:18:58;;;;;;;3.58;2.08;;;9.60;99.90;;;;;;6339227;22;20028;-87
2023/01/07 16:21:37;;;;;;;5.68;2.22;;;9.60;99.90;;;;;;6366642;22;20022;-85
2023/01/07 16:24:04;;;;;;;3.25;2.08;;;10.50;99.90;;;;;;6338791;22;20389;-86
2023/01/07 16:26:44;;;;;;;4.55;2.13;;;9.60;99.90;;;;;;6366889;22;20854;-85
2023/01/07 16:29:30;;;;;;;5.50;2.47;;;9.80;99.90;;;;;;6367096;22;20438;-86
2023/01/07 16:31:57;;;;;;;3.75;2.28;;;9.60;99.90;;;;;;6339071;22;20111;-85
2023/01/07 16:34:22;;;;;;;3.75;2.20;;;10.20;99.90;;;;;;6338641;22;20014;-85
2023/01/07 16:36:58;;;;;;;3.47;2.33;;;9.90;99.90;;;;;;6338752;22;20021;-88
2023/01/07 16:39:34;;;;;;;6.13;2.65;;;10.00;99.90;;;;;;6339546;22;20010;-87
2023/01/07 16:42:19;;;;;;;6.15;2.50;;;9.70;99.90;;;;;;6339363;22;20026;-86
2023/01/07 16:44:44;;;;;;;4.47;2.63;;;9.60;99.90;;;;;;6338653;22;20021;-84
2023/01/07 16:47:35;;;;;;;3.60;2.50;;;9.70;99.90;;;;;;6338513;22;20026;-85
2023/01/07 16:50:13;;;;;;;5.60;2.75;;;9.60;99.90;;;;;;6337541;22;20336;-86
2023/01/07 16:52:52;;;;;;;8.10;2.72;;;10.10;99.90;;;;;;6338933;22;20342;-87
2023/01/07 16:55:51;;;;;;;6.20;3.15;;;9.60;99.90;;;;;;6337909;22;20014;-87
2023/01/07 16:58:47;;;;;;;7.32;4.20;;;9.70;99.90;;;;;;6311932;22;20018;-86
2023/01/07 17:01:28;;;;;;;8.93;3.25;;;10.60;99.90;;;;;;6366861;22;20046;-86
2023/01/07 17:04:00;;;;;;;5.47;3.67;;;9.60;99.90;;;;;;6339178;22;20014;-88
2023/01/07 17:06:38;;;;;;;4.25;2.58;;;10.10;99.90;;;;;;6339413;22;20119;-85
2023/01/07 17:09:03;;;;;;;4.05;2.33;;;10.30;99.90;;;;;;6367516;22;20021;-87
2023/01/07 17:11:38;;;;;;;4.55;3.03;;;10.30;99.90;;;;;;6339940;22;20018;-85
2023/01/07 17:14:33;;;;;;;8.88;3.40;;;10.50;99.90;;;;;;6339546;22;20018;-86
2023/01/07 17:17:13;;;;;;;5.32;2.90;;;9.60;99.90;;;;;;6367260;22;20053;-86
2023/01/07 17:19:42;;;;;;;6.28;3.10;;;9.60;99.90;;;;;;6339346;22;20088;-83
2023/01/07 17:22:33;;;;;;;4.60;2.80;;;9.60;99.90;;;;;;6367721;22;20373;-86
2023/01/07 17:25:14;;;;;;;4.28;2.53;;;9.60;99.90;;;;;;6367168;22;20019;-84
2023/01/07 17:27:48;;;;;;;5.30;2.83;;;9.60;99.90;;;;;;6366537;22;20022;-85
2023/01/07 17:30:17;;;;;;;8.18;3.05;;;10.60;99.90;;;;;;6339468;22;20014;-86
2023/01/07 17:32:43;;;;;;;4.68;2.50;;;9.60;99.90;;;;;;6366710;22;20021;-85
2023/01/07 17:35:20;;;;;;;4.05;2.53;;;9.90;99.90;;;;;;6338327;22;20071;-85
2023/01/07 17:37:46;;;;;;;4.90;2.35;;;10.40;99.90;;;;;;6366689;22;20023;-85
2023/01/07 17:40:13;;;;;;;4.78;2.63;;;9.70;99.90;;;;;;6312410;22;20047;-82
2023/01/07 17:45:24;;;;;;;4.90;2.92;;;9.90;99.90;;;;;;6366722;22;20105;-83
2023/01/07 17:47:51;;;;;;;6.03;2.83;;;9.50;99.90;;;;;;6338810;22;20761;-85
2023/01/07 17:50:18;;;;;;;4.75;2.45;;;10.40;99.90;;;;;;6366267;22;20045;-82
2023/01/07 17:52:47;;;;;;;4.57;2.47;;;10.30;99.90;;;;;;6367388;22;20081;-83
2023/01/07 17:55:16;;;;;;;6.78;3.03;;;9.70;99.90;;;;;;6367171;22;20046;-87
2023/01/07 17:57:41;;;;;;;5.88;3.00;;;9.50;99.90;;;;;;6367567;22;20474;-86
2023/01/07 18:00:13;;;;;;;5.90;2.63;;;9.50;99.90;;;;;;6366945;22;20018;-88
2023/01/07 18:02:39;;;;;;;4.05;2.78;;;9.50;99.90;;;;;;6339272;22;20512;-85
2023/01/07 18:05:15;;;;;;;7.10;3.17;;;9.50;99.90;;;;;;6338808;22;20026;-88
2023/01/07 18:07:40;;;;;;;5.25;2.40;;;8.90;99.90;;;;;;6339232;22;20122;-88
2023/01/07 18:10:18;;;;;;;5.22;3.20;;;10.50;99.90;;;;;;6339542;22;20439;-88
2023/01/07 18:12:47;;;;;;;5.25;2.90;;;10.30;99.90;;;;;;6315428;22;20060;-92
2023/01/07 18:21:22;;;;;;;11.60;3.75;;;9.30;99.90;;;;;;6367763;22;20025;-87
2023/01/07 18:24:31;;;;;;;5.43;3.20;;;10.30;99.90;;;;;;6341449;22;20027;-86
2023/01/07 18:27:51;;;;;;;4.57;3.20;;;9.90;99.90;;;;;;6245013;22;20108;-92
2023/01/07 18:34:05;;;;;;;5.07;2.80;;;9.10;99.90;;;;;;6068679;23;20795;-88
2023/01/07 18:37:04;;;;;;;;;;;;;;;;;;;;;
2023/01/07 18:40:28;;;;;;;4.75;3.20;;;9.10;99.90;;;;;;6092579;23;19928;-88
2023/01/07 18:42:56;;;;;;;4.18;2.75;;;9.30;99.90;;;;;;6016335;23;20043;-87
2023/01/07 18:45:34;;;;;;;4.93;2.78;;;9.90;99.90;;;;;;6063260;23;20010;-89
2023/01/07 18:48:36;;;;;;;4.22;2.75;;;10.10;99.90;;;;;;6040076;23;20017;-87
2023/01/07 18:51:20;;;;;;;4.18;2.58;;;8.40;99.90;;;;;;6039890;23;20019;-87
2023/01/07 18:54:04;;;;;;;6.25;3.35;;;9.00;99.90;;;;;;6063371;23;20018;-87
2023/01/07 18:57:15;;;;;;;7.03;3.42;;;9.10;99.90;;;;;;6039437;23;20007;-88
2023/01/07 18:59:56;;;;;;;4.22;2.55;;;9.60;99.90;;;;;;6039834;23;20026;-89
2023/01/07 19:02:22;;;;;;;4.07;2.72;;;9.00;99.90;;;;;;6064652;23;20003;-85
2023/01/07 19:04:54;;;;;;;3.40;2.45;;;9.40;99.90;;;;;;6122701;23;20010;-88
2023/01/07 19:07:20;;;;;;;4.85;2.67;;;9.50;99.90;;;;;;6149087;23;20366;-88
2023/01/07 19:10:23;;;;;;;4.30;2.70;;;10.00;99.90;;;;;;6192112;23;20084;-88
2023/01/07 19:12:49;;;;;;;6.03;2.80;;;9.20;99.90;;;;;;6126184;23;20017;-87
2023/01/07 19:15:39;;;;;;;4.30;2.90;;;9.00;99.90;;;;;;6151353;23;20133;-88
2023/01/07 19:18:06;;;;;;;5.63;3.33;;;9.40;99.90;;;;;;6069666;23;20089;-88
2023/01/07 19:20:35;;;;;;;4.53;2.72;;;9.80;99.90;;;;;;6131387;23;20024;-84
2023/01/07 19:23:53;;;;;;;4.78;2.80;;;8.60;99.90;;;;;;6128334;23;20024;-89
2023/01/07 19:26:29;;;;;;;6.00;2.53;;;9.10;99.90;;;;;;6154441;23;20017;-88
2023/01/07 19:28:55;;;;;;;7.65;2.67;;;9.00;99.90;;;;;;6180114;23;20466;-88
2023/01/07 19:31:26;;;;;;;7.80;2.78;;;9.00;99.90;;;;;;6180792;23;20032;-89
2023/01/07 19:34:03;;;;;;;5.43;2.70;;;8.90;99.90;;;;;;6180748;23;20017;-90
2023/01/07 19:36:34;;;;;;;4.07;2.80;;;9.60;99.90;;;;;;6091879;23;20033;-89
2023/01/07 19:39:00;;;;;;;5.10;2.53;;;9.00;99.90;;;;;;6067556;23;20524;-89
2023/01/07 19:41:26;;;;;;;5.13;2.50;;;10.10;99.90;;;;;;6068274;23;20030;-89
2023/01/07 19:44:00;;;;;;;5.25;2.40;;;9.90;99.90;;;;;;6122493;23;20577;-88
2023/01/07 19:46:26;;;;;;;3.85;2.50;;;10.00;99.90;;;;;;6180839;23;20028;-87
2023/01/07 19:48:54;;;;;;;3.42;2.28;;;9.70;99.90;;;;;;6180443;23;20024;-89
2023/01/07 19:51:49;;;;;;;3.95;2.50;;;10.20;99.90;;;;;;6180403;23;20021;-89
2023/01/07 19:54:26;;;;;;;4.65;2.60;;;9.40;99.90;;;;;;6158576;23;20052;-90
2023/01/07 19:56:52;;;;;;;4.03;2.70;;;9.30;99.90;;;;;;6210256;23;20099;-86
2023/01/07 19:59:21;;;;;;;4.88;2.63;;;10.00;99.90;;;;;;6210671;23;20034;-89
2023/01/07 20:01:48;;;;;;;7.43;2.88;;;9.20;99.90;;;;;;6210376;23;20446;-87
2023/01/07 20:04:14;;;;;;;4.00;2.60;;;9.20;99.90;;;;;;6185191;23;20016;-90
2023/01/07 20:06:40;;;;;;;3.85;2.45;;;10.20;99.90;;;;;;6193658;22;20503;-92
2023/01/07 20:09:09;;;;;;;6.25;2.90;;;9.20;99.90;;;;;;6271967;22;20442;-87
2023/01/07 20:11:38;;;;;;;8.07;3.28;;;9.10;99.90;;;;;;6245323;22;20082;-90
2023/01/07 20:14:06;;;;;;;6.18;3.03;;;9.90;99.90;;;;;;6246555;22;20018;-90
2023/01/07 20:16:34;;;;;;;7.68;3.13;;;9.80;99.90;;;;;;6220902;22;20054;-86
2023/01/07 20:19:00;;;;;;;6.05;2.42;;;10.10;99.90;;;;;;6272276;22;20061;-90
2023/01/07 20:21:26;;;;;;;4.93;2.95;;;9.80;99.90;;;;;;6272012;22;20016;-86
2023/01/07 20:23:52;;;;;;;3.75;2.65;;;9.10;99.90;;;;;;6245942;22;20066;-87
2023/01/07 20:26:23;;;;;;;5.82;2.90;;;9.20;99.90;;;;;;6245729;22;20027;-86
2023/01/07 20:28:52;;;;;;;4.40;2.90;;;9.10;99.90;;;;;;6221101;22;20107;-90
2023/01/07 20:31:20;;;;;;;4.25;2.60;;;9.10;99.90;;;;;;6332538;22;20260;-86
2023/01/07 20:33:48;;;;;;;4.85;2.67;;;9.60;99.90;;;;;;6340170;22;20463;-90
2023/01/07 20:36:19;;;;;;;3.88;2.45;;;10.10;99.90;;;;;;6368043;22;20099;-88
2023/01/07 20:38:45;;;;;;;4.18;2.63;;;9.20;99.90;;;;;;6340559;22;20025;-89
2023/01/07 20:41:16;;;;;;;5.72;3.05;;;10.10;99.90;;;;;;6368288;22;20029;-90
2023/01/07 20:43:42;;;;;;;3.92;2.45;;;9.20;99.90;;;;;;6367523;22;20021;-87
2023/01/07 20:46:08;;;;;;;4.60;2.90;;;10.20;99.90;;;;;;6340306;22;20018;-87
2023/01/07 20:48:35;;;;;;;7.30;3.10;;;10.10;99.90;;;;;;6339989;22;20018;-82
2023/01/07 20:51:05;;;;;;;5.25;2.53;;;9.20;99.90;;;;;;6368238;22;20026;-89
2023/01/07 20:53:31;;;;;;;5.07;3.33;;;9.30;99.90;;;;;;6368194;22;20056;-88
2023/01/07 20:56:01;;;;;;;4.95;2.80;;;9.30;99.90;;;;;;6368688;22;20014;-87
2023/01/07 20:58:31;;;;;;;5.38;2.35;;;10.30;99.90;;;;;;6313060;22;20014;-90
2023/01/07 21:00:57;;;;;;;4.88;3.00;;;10.10;99.90;;;;;;6368239;22;20450;-85
2023/01/07 21:03:22;;;;;;;5.82;3.15;;;9.70;99.90;;;;;;6368327;22;20020;-88
2023/01/07 21:05:48;;;;;;;5.35;2.80;;;10.10;99.90;;;;;;6368648;22;20010;-88
2023/01/07 21:08:14;;;;;;;4.15;2.80;;;9.60;99.90;;;;;;6367269;22;20125;-86
2023/01/07 21:10:40;;;;;;;6.40;3.13;;;10.00;99.90;;;;;;6313472;22;20057;-86
2023/01/07 21:13:06;;;;;;;7.28;3.20;;;10.30;99.90;;;;;;6337708;22;20025;-86
2023/01/07 21:15:35;;;;;;;4.75;2.88;;;10.20;99.90;;;;;;6312658;22;20030;-85
2023/01/07 21:18:00;;;;;;;5.18;2.60;;;9.30;99.90;;;;;;6367430;22;20049;-89
2023/01/07 21:20:26;;;;;;;4.70;2.55;;;10.20;99.90;;;;;;6367930;22;20025;-87
2023/01/07 21:22:55;;;;;;;5.82;3.25;;;9.30;99.90;;;;;;6340611;22;20022;-83
2023/01/07 21:25:20;;;;;;;5.70;2.70;;;9.30;99.90;;;;;;6367559;22;20033;-85
2023/01/07 21:27:47;;;;;;;6.20;3.15;;;10.30;99.90;;;;;;6339656;22;20010;-85
2023/01/07 21:30:15;;;;;;;5.55;2.97;;;9.30;99.90;;;;;;6367218;22;20093;-88
2023/01/07 21:32:41;;;;;;;4.78;2.80;;;9.30;99.90;;;;;;6339929;22;20018;-86
2023/01/07 21:35:08;;;;;;;5.45;3.00;;;10.20;99.90;;;;;;6339322;22;20018;-85
2023/01/07 21:37:34;;;;;;;5.18;3.20;;;9.30;99.90;;;;;;6367936;22;20014;-89
2023/01/07 21:39:59;;;;;;;4.40;2.85;;;10.20;99.90;;;;;;6368030;22;20305;-84
2023/01/07 21:42:25;;;;;;;4.93;3.00;;;9.90;99.90;;;;;;6367315;22;20651;-86
2023/01/07 21:44:51;;;;;;;6.18;3.45;;;10.40;99.90;;;;;;6312800;22;20022;-86
2023/01/07 21:47:16;;;;;;;4.88;3.05;;;9.60;99.90;;;;;;6366706;22;20063;-89
2023/01/07 21:49:42;;;;;;;7.05;3.35;;;10.20;99.90;;;;;;6367141;22;20010;-84
2023/01/07 21:52:08;;;;;;;6.68;2.95;;;9.50;99.90;;;;;;6367224;22;20053;-89
2023/01/07 21:54:34;;;;;;;5.10;2.83;;;9.90;99.90;;;;;;6338201;22;20015;-88
2023/01/07 21:57:06;;;;;;;5.75;3.28;;;9.30;99.90;;;;;;6366382;22;20755;-88
2023/01/07 21:59:34;;;;;;;6.63;3.10;;;9.30;99.90;;;;;;6338792;22;20067;-88
2023/01/07 22:02:02;;;;;;;5.28;3.08;;;9.60;99.90;;;;;;6309802;22;20019;-90
2023/01/07 22:05:10;;;;;;;5.25;3.60;;;10.30;99.90;;;;;;6281738;22;20435;-91
2023/01/07 22:07:39;;;;;;;5.53;3.38;;;9.20;99.90;;;;;;6124410;23;20032;-89
2023/01/07 22:17:00;;;;;;;5.80;3.30;;;9.20;99.90;;;;;;6307093;22;20026;-89
2023/01/07 22:19:58;;;;;;;5.13;3.10;;;9.10;99.90;;;;;;6307381;22;20021;-90
2023/01/07 22:22:38;;;;;;;7.32;3.58;;;10.20;99.90;;;;;;6153732;23;20021;-87
2023/01/07 22:25:05;;;;;;;8.13;3.53;;;9.60;99.90;;;;;;6153618;23;20047;-92
2023/01/07 22:28:13;;;;;;;5.68;3.67;;;9.10;99.90;;;;;;6153095;23;20864;-89
2023/01/07 22:30:43;;;;;;;6.07;3.35;;;9.10;99.90;;;;;;6066326;23;20097;-90
2023/01/07 22:33:14;;;;;;;5.63;3.13;;;9.10;99.90;;;;;;6032215;23;20147;-90
2023/01/07 22:35:40;;;;;;;4.80;3.10;;;9.70;99.90;;;;;;6032537;23;20027;-88
2023/01/07 22:38:28;;;;;;;5.38;3.55;;;10.00;99.90;;;;;;6031743;23;20330;-87
2023/01/07 22:41:18;;;;;;;5.70;3.20;;;9.10;99.90;;;;;;5985741;23;20031;-91
2023/01/07 22:44:52;;;;;;;7.57;3.60;;;9.70;99.90;;;;;;5985958;23;20023;-89
2023/01/07 22:47:40;;;;;;;5.07;3.03;;;8.60;99.90;;;;;;5951915;24;20112;-90
2023/01/07 22:50:19;;;;;;;5.97;3.30;;;9.30;99.90;;;;;;5952712;24;20028;-90
2023/01/07 22:52:48;;;;;;;6.53;3.03;;;9.30;99.90;;;;;;5954297;24;20024;-90
2023/01/07 22:55:14;;;;;;;5.95;2.92;;;10.20;99.90;;;;;;5952575;24;20051;-91
2023/01/07 22:57:48;;;;;;;5.38;3.50;;;9.20;99.90;;;;;;6007061;23;20356;-89
2023/01/07 23:00:40;;;;;;;5.38;3.17;;;8.60;99.90;;;;;;6062983;23;20074;-89
2023/01/07 23:03:49;;;;;;;6.18;3.53;;;9.20;99.90;;;;;;6044176;23;20018;-88
2023/01/07 23:06:20;;;;;;;6.13;2.97;;;9.90;99.90;;;;;;6124013;23;20092;-90
2023/01/07 23:08:55;;;;;;;5.30;3.10;;;9.50;99.90;;;;;;6184247;23;20095;-90
2023/01/07 23:12:05;;;;;;;5.18;3.10;;;10.00;99.90;;;;;;6184522;23;20063;-90
2023/01/07 23:14:34;;;;;;;6.00;2.67;;;9.30;99.90;;;;;;6183857;23;20036;-90
2023/01/07 23:17:00;;;;;;;5.00;2.80;;;10.10;99.90;;;;;;6184550;23;20095;-88
2023/01/07 23:19:26;;;;;;;6.63;3.05;;;10.30;99.90;;;;;;6209630;23;20048;-91
2023/01/07 23:21:55;;;;;;;6.60;3.40;;;9.30;99.90;;;;;;6184907;23;20541;-91
2023/01/07 23:24:22;;;;;;;4.85;2.92;;;9.30;99.90;;;;;;6184819;23;20063;-92
2023/01/07 23:26:50;;;;;;;5.18;2.70;;;9.30;99.90;;;;;;6183883;23;20095;-90
2023/01/07 23:29:19;;;;;;;5.28;2.92;;;9.30;99.90;;;;;;6184934;23;20035;-90
2023/01/07 23:31:51;;;;;;;5.47;2.60;;;9.30;99.90;;;;;;6210087;23;20103;-86
2023/01/07 23:34:17;;;;;;;4.70;2.90;;;9.30;99.90;;;;;;6209067;23;20028;-86
2023/01/07 23:36:49;;;;;;;5.72;2.75;;;9.30;99.90;;;;;;6159355;23;20021;-88